YSSYNFTF

Guest
Details From YSSY - Sydney Intl
To NFTF - Fua Amotu Intl
Flight Number -
Tags Generated
Created
Modified
Stats Distance 1,937 nm / 3,587 km
Max Altitude 0 ft / 0 m
Waypoints 3
Social Downloads 0
Likes 0
Share VATSIM

Download

Looking for another format? Having issues loading an existing format? Contact us
Advertisement - Login to hide

Notes

Generated

Route

YSSY TBU NFTF

ID Type Via Altitude Latitude Longitude Leg Dist Tot Dist Heading (true) Name
O YSSY APT - 0 ft / 0 m -33.94962˚ 151.18832˚ - 0 nm - -
TBU VOR - 0 ft / 0 m -21.24556˚ -175.14722˚ 1935 nm 1935 nm 76° / 60° -
O NFTF APT - 0 ft / 0 m -21.23770˚ -175.13873˚ 0 nm 1936 nm 45° / 45° Fua Amotu Intl

Altitude Profile

Advertisement - Login to hide

Weather


0- 5 10 15 20 25 30 35+ Temperature / ° C

Clouds and Precipitation
Forecast for 2017-12-17 12:00 UTC. Updated an hour ago

Ground ~20,000 ft ~40,000 ft Winds

YSSY

Details ICAO YSSY (SYD)
Name Sydney Intl
Region Australia
Timezone Australia/Sydney (UTC+11.0)
Stats Elevation 21 ft / 6 m (AMSL)
Location -33.949273° 151.181347°
Runways 3
Magnetic Variation 12.599° E

METAR

YSSY 171000Z 13007KT 9999 FEW013 SCT020 BKN027 23/21 Q1015 FM1100 09005KT 9999 BKN018

Decode

TAF

TAF AMD YSSY 170529Z 1706/1812 15012KT 9999 FEW010 BKN025 FM171200 06008KT 9999 BKN015 FM172000 03010KT 9999 SCT020 FM180200 05015KT 9999 FEW035 FM181000 02010KT 9999 FEW020 INTER 1708/1710 4000 SHRA BKN010 PROB30 TEMPO 1803/1812 3000 TSRA BKN012 SCT060CB

Decode

Departure Runways

ID Width Length Bearing (true) Bearing (mag) Surface Threshold Offset Overrun Length
07 148 ft / 45 m 8,285 ft / 2,525 m 74.13° 61.53° Asphalt 0 ft / 0 m 0 ft / 0 m
16L 148 ft / 45 m 8,018 ft / 2,444 m 167.81° 155.21° Asphalt 758 ft / 231 m 0 ft / 0 m
16R 148 ft / 45 m 13,033 ft / 3,973 m 167.86° 155.26° Asphalt 279 ft / 85 m 0 ft / 0 m
25 148 ft / 45 m 8,285 ft / 2,525 m 254.12° 241.52° Asphalt 324 ft / 99 m 0 ft / 0 m
34L 148 ft / 45 m 13,033 ft / 3,973 m 347.85° 335.25° Asphalt 0 ft / 0 m 0 ft / 0 m
34R 148 ft / 45 m 8,018 ft / 2,444 m 347.81° 335.21° Asphalt 125 ft / 38 m 0 ft / 0 m

NFTF

Details ICAO NFTF (TBU)
Name Fua Amotu Intl
Region Fiji and Tonga
Timezone Pacific/Tongatapu (UTC+14.0)
Stats Elevation 126 ft / 38 m (AMSL)
Location -21.242493° -175.144569°
Runways 2
Magnetic Variation 13.666° E

METAR

NFTF 171000Z 00000KT 9999 FEW016TCU SCT120 22/19 Q1009

Decode

TAF

TAF NFTF 170505Z 1706/1806 17008KT 9999 -SHRA SCT016 BKN100

Decode

Destination Runways

ID Width Length Bearing (true) Bearing (mag) Surface Threshold Offset Overrun Length
11 148 ft / 45 m 8,967 ft / 2,733 m 122.10° 108.43° Asphalt 0 ft / 0 m 194 ft / 59 m
17 194 ft / 59 m 4,960 ft / 1,512 m 182.40° 168.73° Unknown 0 ft / 0 m 0 ft / 0 m
29 148 ft / 45 m 8,967 ft / 2,733 m 302.09° 288.42° Asphalt 0 ft / 0 m 194 ft / 59 m
35 194 ft / 59 m 4,960 ft / 1,512 m 2.40° 348.73° Unknown 0 ft / 0 m 0 ft / 0 m

Popular Alternatives